sensor_id;sensor_type;location;lat;lon;timestamp;temperature;humidity
10276;DHT22;5183;51.190;6.820;2023-02-15T00:01:24;3.80;1.00
10276;DHT22;5183;51.190;6.820;2023-02-15T00:03:51;3.80;63.80
10276;DHT22;5183;51.190;6.820;2023-02-15T00:06:18;3.80;1.00
10276;DHT22;5183;51.190;6.820;2023-02-15T00:08:45;3.70;1.00
10276;DHT22;5183;51.190;6.820;2023-02-15T00:11:14;3.70;1.00
10276;DHT22;5183;51.190;6.820;2023-02-15T00:13:42;3.60;1.00
10276;DHT22;5183;51.190;6.820;2023-02-15T00:16:10;3.70;99.90
10276;DHT22;5183;51.190;6.820;2023-02-15T00:18:38;3.60;99.90
10276;DHT22;5183;51.190;6.820;2023-02-15T00:21:06;3.50;99.90
10276;DHT22;5183;51.190;6.820;2023-02-15T00:23:34;3.50;99.90
10276;DHT22;5183;51.190;6.820;2023-02-15T00:26:05;3.50;99.90
10276;DHT22;5183;51.190;6.820;2023-02-15T00:28:34;3.40;99.90
10276;DHT22;5183;51.190;6.820;2023-02-15T00:31:05;3.30;1.00
10276;DHT22;5183;51.190;6.820;2023-02-15T00:33:32;3.30;1.00
10276;DHT22;5183;51.190;6.820;2023-02-15T00:36:00;3.40;1.00
10276;DHT22;5183;51.190;6.820;2023-02-15T00:38:28;3.30;1.00
10276;DHT22;5183;51.190;6.820;2023-02-15T00:40:56;3.30;1.00
10276;DHT22;5183;51.190;6.820;2023-02-15T00:43:23;3.30;1.00
10276;DHT22;5183;51.190;6.820;2023-02-15T00:45:52;3.20;1.00
10276;DHT22;5183;51.190;6.820;2023-02-15T00:48:19;3.20;96.20
10276;DHT22;5183;51.190;6.820;2023-02-15T00:50:48;3.20;99.90
10276;DHT22;5183;51.190;6.820;2023-02-15T00:53:15;3.20;99.90
10276;DHT22;5183;51.190;6.820;2023-02-15T00:55:42;3.20;99.90
10276;DHT22;5183;51.190;6.820;2023-02-15T00:58:09;3.10;99.90
10276;DHT22;5183;51.190;6.820;2023-02-15T01:00:37;3.20;99.90
10276;DHT22;5183;51.190;6.820;2023-02-15T01:03:05;3.10;99.90
10276;DHT22;5183;51.190;6.820;2023-02-15T01:05:33;3.10;99.90
10276;DHT22;5183;51.190;6.820;2023-02-15T01:08:00;3.10;99.90
10276;DHT22;5183;51.190;6.820;2023-02-15T01:10:27;3.00;99.90
10276;DHT22;5183;51.190;6.820;2023-02-15T01:12:55;3.00;99.90
10276;DHT22;5183;51.190;6.820;2023-02-15T01:15:22;2.90;99.90
10276;DHT22;5183;51.190;6.820;2023-02-15T01:17:49;2.90;1.00
10276;DHT22;5183;51.190;6.820;2023-02-15T01:20:21;2.90;1.00
10276;DHT22;5183;51.190;6.820;2023-02-15T01:22:48;2.90;99.90
10276;DHT22;5183;51.190;6.820;2023-02-15T01:25:17;2.90;99.90
10276;DHT22;5183;51.190;6.820;2023-02-15T01:27:44;2.90;1.00
10276;DHT22;5183;51.190;6.820;2023-02-15T01:30:12;2.90;1.00
10276;DHT22;5183;51.190;6.820;2023-02-15T01:32:40;2.80;1.00
10276;DHT22;5183;51.190;6.820;2023-02-15T01:35:08;2.80;1.00
10276;DHT22;5183;51.190;6.820;2023-02-15T01:37:36;2.80;1.00
10276;DHT22;5183;51.190;6.820;2023-02-15T01:40:06;2.70;1.00
10276;DHT22;5183;51.190;6.820;2023-02-15T01:42:34;2.80;1.00
10276;DHT22;5183;51.190;6.820;2023-02-15T01:45:03;2.70;1.00
10276;DHT22;5183;51.190;6.820;2023-02-15T01:47:34;2.80;1.00
10276;DHT22;5183;51.190;6.820;2023-02-15T01:50:12;2.70;1.00
10276;DHT22;5183;51.190;6.820;2023-02-15T01:52:46;2.70;1.00
10276;DHT22;5183;51.190;6.820;2023-02-15T01:55:15;2.70;1.00
10276;DHT22;5183;51.190;6.820;2023-02-15T01:57:43;2.70;1.00
10276;DHT22;5183;51.190;6.820;2023-02-15T02:00:11;2.60;1.00
10276;DHT22;5183;51.190;6.820;2023-02-15T02:02:38;2.60;1.00
10276;DHT22;5183;51.190;6.820;2023-02-15T02:05:06;2.50;1.00
10276;DHT22;5183;51.190;6.820;2023-02-15T02:07:36;2.50;1.00
10276;DHT22;5183;51.190;6.820;2023-02-15T02:10:07;2.50;1.00
10276;DHT22;5183;51.190;6.820;2023-02-15T02:12:35;2.60;1.00
10276;DHT22;5183;51.190;6.820;2023-02-15T02:15:04;2.60;1.00
10276;DHT22;5183;51.190;6.820;2023-02-15T02:17:41;2.50;1.00
10276;DHT22;5183;51.190;6.820;2023-02-15T02:20:39;2.50;1.00
10276;DHT22;5183;51.190;6.820;2023-02-15T02:23:25;2.50;1.00
10276;DHT22;5183;51.190;6.820;2023-02-15T02:32:49;2.50;1.00
10276;DHT22;5183;51.190;6.820;2023-02-15T02:35:21;2.50;1.00
10276;DHT22;5183;51.190;6.820;2023-02-15T02:38:02;2.40;1.00
10276;DHT22;5183;51.190;6.820;2023-02-15T02:40:49;2.40;1.00
10276;DHT22;5183;51.190;6.820;2023-02-15T02:43:21;2.50;1.00
10276;DHT22;5183;51.190;6.820;2023-02-15T02:45:57;2.40;1.00
10276;DHT22;5183;51.190;6.820;2023-02-15T02:48:29;2.50;1.00
10276;DHT22;5183;51.190;6.820;2023-02-15T02:50:57;2.50;1.00
10276;DHT22;5183;51.190;6.820;2023-02-15T02:53:24;2.40;1.00
10276;DHT22;5183;51.190;6.820;2023-02-15T02:55:54;2.40;1.00
10276;DHT22;5183;51.190;6.820;2023-02-15T02:58:26;2.40;1.00
10276;DHT22;5183;51.190;6.820;2023-02-15T03:00:57;2.30;1.00
10276;DHT22;5183;51.190;6.820;2023-02-15T03:03:28;2.40;1.00
10276;DHT22;5183;51.190;6.820;2023-02-15T03:05:59;2.30;1.00
10276;DHT22;5183;51.190;6.820;2023-02-15T03:08:30;2.30;1.00
10276;DHT22;5183;51.190;6.820;2023-02-15T03:11:02;2.30;1.00
10276;DHT22;5183;51.190;6.820;2023-02-15T03:13:30;2.30;1.00
10276;DHT22;5183;51.190;6.820;2023-02-15T03:15:57;2.40;1.00
10276;DHT22;5183;51.190;6.820;2023-02-15T03:18:46;2.30;1.00
10276;DHT22;5183;51.190;6.820;2023-02-15T03:21:19;2.30;1.00
10276;DHT22;5183;51.190;6.820;2023-02-15T03:23:51;2.30;1.00
10276;DHT22;5183;51.190;6.820;2023-02-15T03:26:19;2.30;1.00
10276;DHT22;5183;51.190;6.820;2023-02-15T03:28:49;2.30;1.00
10276;DHT22;5183;51.190;6.820;2023-02-15T03:31:18;2.30;1.00
10276;DHT22;5183;51.190;6.820;2023-02-15T03:33:51;2.30;1.00
10276;DHT22;5183;51.190;6.820;2023-02-15T03:36:21;2.20;1.00
10276;DHT22;5183;51.190;6.820;2023-02-15T03:38:53;2.20;1.00
10276;DHT22;5183;51.190;6.820;2023-02-15T03:41:27;2.20;1.00
10276;DHT22;5183;51.190;6.820;2023-02-15T03:43:59;2.30;1.00
10276;DHT22;5183;51.190;6.820;2023-02-15T03:46:30;2.10;1.00
10276;DHT22;5183;51.190;6.820;2023-02-15T03:49:02;2.10;1.00
10276;DHT22;5183;51.190;6.820;2023-02-15T03:51:34;1.50;1.00
10276;DHT22;5183;51.190;6.820;2023-02-15T03:54:04;2.00;1.00
10276;DHT22;5183;51.190;6.820;2023-02-15T03:56:34;1.90;1.00
10276;DHT22;5183;51.190;6.820;2023-02-15T03:59:01;2.00;1.00
10276;DHT22;5183;51.190;6.820;2023-02-15T04:01:52;2.00;1.00
10276;DHT22;5183;51.190;6.820;2023-02-15T04:04:30;1.90;1.00
10276;DHT22;5183;51.190;6.820;2023-02-15T04:06:59;1.90;1.00
10276;DHT22;5183;51.190;6.820;2023-02-15T04:09:26;1.90;1.00
10276;DHT22;5183;51.190;6.820;2023-02-15T04:12:10;1.90;1.00
10276;DHT22;5183;51.190;6.820;2023-02-15T04:14:37;1.90;1.00
10276;DHT22;5183;51.190;6.820;2023-02-15T04:17:21;2.00;1.00
10276;DHT22;5183;51.190;6.820;2023-02-15T04:19:49;1.90;1.00
10276;DHT22;5183;51.190;6.820;2023-02-15T04:22:33;1.80;1.00
10276;DHT22;5183;51.190;6.820;2023-02-15T04:25:17;1.90;1.00
10276;DHT22;5183;51.190;6.820;2023-02-15T04:27:45;1.80;1.00
10276;DHT22;5183;51.190;6.820;2023-02-15T04:30:14;1.80;1.00
10276;DHT22;5183;51.190;6.820;2023-02-15T04:32:42;1.80;1.00
10276;DHT22;5183;51.190;6.820;2023-02-15T04:35:10;1.80;1.00
10276;DHT22;5183;51.190;6.820;2023-02-15T04:37:37;1.80;1.00
10276;DHT22;5183;51.190;6.820;2023-02-15T04:40:06;1.80;1.00
10276;DHT22;5183;51.190;6.820;2023-02-15T04:42:33;1.80;1.00
10276;DHT22;5183;51.190;6.820;2023-02-15T04:45:00;1.80;1.00
10276;DHT22;5183;51.190;6.820;2023-02-15T04:47:27;1.90;1.00
10276;DHT22;5183;51.190;6.820;2023-02-15T04:49:53;1.80;1.00
10276;DHT22;5183;51.190;6.820;2023-02-15T04:52:22;1.80;1.00
10276;DHT22;5183;51.190;6.820;2023-02-15T04:54:49;1.80;1.00
10276;DHT22;5183;51.190;6.820;2023-02-15T04:57:15;1.80;1.00
10276;DHT22;5183;51.190;6.820;2023-02-15T04:59:42;1.80;1.00
10276;DHT22;5183;51.190;6.820;2023-02-15T05:02:09;1.80;1.00
10276;DHT22;5183;51.190;6.820;2023-02-15T05:04:39;1.80;1.00
10276;DHT22;5183;51.190;6.820;2023-02-15T05:07:06;1.90;1.00
10276;DHT22;5183;51.190;6.820;2023-02-15T05:09:36;1.80;1.00
10276;DHT22;5183;51.190;6.820;2023-02-15T05:12:04;1.80;1.00
10276;DHT22;5183;51.190;6.820;2023-02-15T05:14:33;1.70;1.00
10276;DHT22;5183;51.190;6.820;2023-02-15T05:17:00;1.60;1.00
10276;DHT22;5183;51.190;6.820;2023-02-15T05:19:28;1.60;1.00
10276;DHT22;5183;51.190;6.820;2023-02-15T05:21:55;1.50;1.00
10276;DHT22;5183;51.190;6.820;2023-02-15T05:24:22;1.60;1.00
10276;DHT22;5183;51.190;6.820;2023-02-15T05:27:08;1.50;1.00
10276;DHT22;5183;51.190;6.820;2023-02-15T05:29:53;1.50;1.00
10276;DHT22;5183;51.190;6.820;2023-02-15T05:32:20;1.50;1.00
10276;DHT22;5183;51.190;6.820;2023-02-15T05:34:47;1.50;1.00
10276;DHT22;5183;51.190;6.820;2023-02-15T05:37:14;1.40;1.00
10276;DHT22;5183;51.190;6.820;2023-02-15T05:40:13;1.40;10.80
10276;DHT22;5183;51.190;6.820;2023-02-15T05:42:55;1.40;15.80
10276;DHT22;5183;51.190;6.820;2023-02-15T05:45:22;1.30;15.70
10276;DHT22;5183;51.190;6.820;2023-02-15T05:47:49;1.40;34.90
10276;DHT22;5183;51.190;6.820;2023-02-15T05:50:16;1.40;45.30
10276;DHT22;5183;51.190;6.820;2023-02-15T05:52:43;1.40;41.90
10276;DHT22;5183;51.190;6.820;2023-02-15T05:55:10;1.40;36.40
10276;DHT22;5183;51.190;6.820;2023-02-15T05:57:37;1.40;28.40
10276;DHT22;5183;51.190;6.820;2023-02-15T06:00:07;1.40;19.80
10276;DHT22;5183;51.190;6.820;2023-02-15T06:02:35;1.40;11.00
10276;DHT22;5183;51.190;6.820;2023-02-15T06:05:03;1.40;1.00
10276;DHT22;5183;51.190;6.820;2023-02-15T06:07:30;1.40;1.00
10276;DHT22;5183;51.190;6.820;2023-02-15T06:09:57;1.40;1.00
10276;DHT22;5183;51.190;6.820;2023-02-15T06:12:24;1.30;1.00
10276;DHT22;5183;51.190;6.820;2023-02-15T06:14:51;1.30;1.00
10276;DHT22;5183;51.190;6.820;2023-02-15T06:17:19;1.30;9.20
10276;DHT22;5183;51.190;6.820;2023-02-15T06:19:47;1.30;8.30
10276;DHT22;5183;51.190;6.820;2023-02-15T06:22:13;1.40;11.20
10276;DHT22;5183;51.190;6.820;2023-02-15T06:24:40;1.40;1.00
10276;DHT22;5183;51.190;6.820;2023-02-15T06:27:08;1.40;1.00
10276;DHT22;5183;51.190;6.820;2023-02-15T06:29:35;1.30;1.00
10276;DHT22;5183;51.190;6.820;2023-02-15T06:32:02;1.20;1.00
10276;DHT22;5183;51.190;6.820;2023-02-15T06:34:30;1.20;1.00
10276;DHT22;5183;51.190;6.820;2023-02-15T06:36:57;1.20;1.00
10276;DHT22;5183;51.190;6.820;2023-02-15T06:39:24;1.20;1.00
10276;DHT22;5183;51.190;6.820;2023-02-15T06:41:51;1.20;1.00
10276;DHT22;5183;51.190;6.820;2023-02-15T06:44:17;1.20;6.80
10276;DHT22;5183;51.190;6.820;2023-02-15T06:46:44;1.30;3.10
10276;DHT22;5183;51.190;6.820;2023-02-15T06:49:11;1.30;1.00
10276;DHT22;5183;51.190;6.820;2023-02-15T06:51:39;1.40;1.00
10276;DHT22;5183;51.190;6.820;2023-02-15T06:54:06;1.40;1.00
10276;DHT22;5183;51.190;6.820;2023-02-15T06:56:33;1.40;1.00
10276;DHT22;5183;51.190;6.820;2023-02-15T06:59:01;1.40;1.00
10276;DHT22;5183;51.190;6.820;2023-02-15T07:01:28;1.40;1.00
10276;DHT22;5183;51.190;6.820;2023-02-15T07:03:54;1.40;1.00
10276;DHT22;5183;51.190;6.820;2023-02-15T07:06:21;1.50;1.00
10276;DHT22;5183;51.190;6.820;2023-02-15T07:08:49;1.50;1.00
10276;DHT22;5183;51.190;6.820;2023-02-15T07:11:16;1.50;1.00
10276;DHT22;5183;51.190;6.820;2023-02-15T07:14:00;1.50;1.00
10276;DHT22;5183;51.190;6.820;2023-02-15T07:16:27;1.50;1.00
10276;DHT22;5183;51.190;6.820;2023-02-15T07:18:54;1.50;1.00
10276;DHT22;5183;51.190;6.820;2023-02-15T07:21:21;1.60;1.00
10276;DHT22;5183;51.190;6.820;2023-02-15T07:23:49;1.70;99.90
10276;DHT22;5183;51.190;6.820;2023-02-15T07:26:16;1.70;93.30
10276;DHT22;5183;51.190;6.820;2023-02-15T07:28:43;1.80;1.00
10276;DHT22;5183;51.190;6.820;2023-02-15T07:31:09;1.70;99.90
10276;DHT22;5183;51.190;6.820;2023-02-15T07:33:36;1.80;99.90
10276;DHT22;5183;51.190;6.820;2023-02-15T07:36:04;1.80;99.90
10276;DHT22;5183;51.190;6.820;2023-02-15T07:38:33;1.80;99.90
10276;DHT22;5183;51.190;6.820;2023-02-15T07:41:02;1.80;1.00
10276;DHT22;5183;51.190;6.820;2023-02-15T07:43:30;1.90;1.00
10276;DHT22;5183;51.190;6.820;2023-02-15T07:45:59;2.00;1.00
10276;DHT22;5183;51.190;6.820;2023-02-15T07:48:26;1.90;99.90
10276;DHT22;5183;51.190;6.820;2023-02-15T07:50:53;2.00;23.30
10276;DHT22;5183;51.190;6.820;2023-02-15T07:53:20;2.00;1.00
10276;DHT22;5183;51.190;6.820;2023-02-15T07:55:46;2.00;1.00
10276;DHT22;5183;51.190;6.820;2023-02-15T07:58:14;2.20;99.90
10276;DHT22;5183;51.190;6.820;2023-02-15T08:00:41;2.10;99.90
10276;DHT22;5183;51.190;6.820;2023-02-15T08:03:28;2.20;99.90
10276;DHT22;5183;51.190;6.820;2023-02-15T08:05:56;2.20;99.90
10276;DHT22;5183;51.190;6.820;2023-02-15T08:08:24;2.20;99.90
10276;DHT22;5183;51.190;6.820;2023-02-15T08:10:59;2.40;1.00
10276;DHT22;5183;51.190;6.820;2023-02-15T08:13:45;2.40;1.00
10276;DHT22;5183;51.190;6.820;2023-02-15T08:16:20;2.40;46.90
10276;DHT22;5183;51.190;6.820;2023-02-15T08:18:46;2.40;1.00
10276;DHT22;5183;51.190;6.820;2023-02-15T08:21:15;2.40;1.00
10276;DHT22;5183;51.190;6.820;2023-02-15T08:23:42;2.50;99.90
10276;DHT22;5183;51.190;6.820;2023-02-15T08:26:12;2.60;99.90
10276;DHT22;5183;51.190;6.820;2023-02-15T08:28:40;2.70;1.00
10276;DHT22;5183;51.190;6.820;2023-02-15T08:31:15;2.70;99.90
10276;DHT22;5183;51.190;6.820;2023-02-15T08:33:46;2.70;99.90
10276;DHT22;5183;51.190;6.820;2023-02-15T08:36:15;2.70;99.90
10276;DHT22;5183;51.190;6.820;2023-02-15T08:38:45;2.70;99.90
10276;DHT22;5183;51.190;6.820;2023-02-15T08:41:14;2.70;40.20
10276;DHT22;5183;51.190;6.820;2023-02-15T08:43:43;2.80;1.00
10276;DHT22;5183;51.190;6.820;2023-02-15T08:46:11;2.80;1.00
10276;DHT22;5183;51.190;6.820;2023-02-15T08:48:39;2.90;1.00
10276;DHT22;5183;51.190;6.820;2023-02-15T08:51:08;3.10;1.00
10276;DHT22;5183;51.190;6.820;2023-02-15T08:53:36;3.10;99.90
10276;DHT22;5183;51.190;6.820;2023-02-15T08:56:03;3.20;99.90
10276;DHT22;5183;51.190;6.820;2023-02-15T08:58:30;3.20;1.00
10276;DHT22;5183;51.190;6.820;2023-02-15T09:00:57;3.20;1.00
10276;DHT22;5183;51.190;6.820;2023-02-15T09:03:25;3.30;99.90
10276;DHT22;5183;51.190;6.820;2023-02-15T09:05:58;3.30;1.00
10276;DHT22;5183;51.190;6.820;2023-02-15T09:08:25;3.40;1.00
10276;DHT22;5183;51.190;6.820;2023-02-15T09:10:52;3.40;1.00
10276;DHT22;5183;51.190;6.820;2023-02-15T09:13:19;3.40;1.00
10276;DHT22;5183;51.190;6.820;2023-02-15T09:15:46;3.50;99.90
10276;DHT22;5183;51.190;6.820;2023-02-15T09:18:13;3.60;99.90
10276;DHT22;5183;51.190;6.820;2023-02-15T09:20:43;3.70;89.40
10276;DHT22;5183;51.190;6.820;2023-02-15T09:23:12;3.80;99.90
10276;DHT22;5183;51.190;6.820;2023-02-15T09:25:41;3.80;2.00
10276;DHT22;5183;51.190;6.820;2023-02-15T09:28:08;3.80;1.00
10276;DHT22;5183;51.190;6.820;2023-02-15T09:30:34;3.90;1.00
10276;DHT22;5183;51.190;6.820;2023-02-15T09:33:01;4.00;99.90
10276;DHT22;5183;51.190;6.820;2023-02-15T09:35:28;3.90;99.90
10276;DHT22;5183;51.190;6.820;2023-02-15T09:37:55;4.10;1.00
10276;DHT22;5183;51.190;6.820;2023-02-15T09:40:23;4.20;1.00
10276;DHT22;5183;51.190;6.820;2023-02-15T09:43:14;4.30;23.00
10276;DHT22;5183;51.190;6.820;2023-02-15T09:45:58;4.50;99.90
10276;DHT22;5183;51.190;6.820;2023-02-15T09:48:39;4.60;1.00
10276;DHT22;5183;51.190;6.820;2023-02-15T09:54:09;4.70;99.90
10276;DHT22;5183;51.190;6.820;2023-02-15T09:56:48;4.80;99.90
10276;DHT22;5183;51.190;6.820;2023-02-15T09:59:21;4.90;99.90
10276;DHT22;5183;51.190;6.820;2023-02-15T10:02:00;5.00;11.50
10276;DHT22;5183;51.190;6.820;2023-02-15T10:04:42;5.00;1.00
10276;DHT22;5183;51.190;6.820;2023-02-15T10:07:24;5.20;99.90
10276;DHT22;5183;51.190;6.820;2023-02-15T10:10:08;5.20;99.90
10276;DHT22;5183;51.190;6.820;2023-02-15T10:12:57;5.30;1.00
10276;DHT22;5183;51.190;6.820;2023-02-15T10:15:40;5.40;1.00
10276;DHT22;5183;51.190;6.820;2023-02-15T10:18:26;5.40;1.00
10276;DHT22;5183;51.190;6.820;2023-02-15T10:21:03;5.50;1.00
10276;DHT22;5183;51.190;6.820;2023-02-15T10:23:46;5.60;99.90
10276;DHT22;5183;51.190;6.820;2023-02-15T10:26:19;5.70;1.00
10276;DHT22;5183;51.190;6.820;2023-02-15T10:28:50;5.90;1.00
10276;DHT22;5183;51.190;6.820;2023-02-15T10:31:24;6.00;99.90
10276;DHT22;5183;51.190;6.820;2023-02-15T10:34:14;6.00;99.90
10276;DHT22;5183;51.190;6.820;2023-02-15T10:36:58;6.00;99.90
10276;DHT22;5183;51.190;6.820;2023-02-15T10:39:36;6.20;99.90
10276;DHT22;5183;51.190;6.820;2023-02-15T10:42:11;6.20;99.90
10276;DHT22;5183;51.190;6.820;2023-02-15T10:44:58;6.30;1.00
10276;DHT22;5183;51.190;6.820;2023-02-15T10:47:41;6.30;99.90
10276;DHT22;5183;51.190;6.820;2023-02-15T10:50:29;6.50;1.00
10276;DHT22;5183;51.190;6.820;2023-02-15T10:53:20;6.50;1.00
10276;DHT22;5183;51.190;6.820;2023-02-15T10:55:55;6.50;1.00
10276;DHT22;5183;51.190;6.820;2023-02-15T10:58:36;6.60;1.00
10276;DHT22;5183;51.190;6.820;2023-02-15T11:01:15;6.80;1.00
10276;DHT22;5183;51.190;6.820;2023-02-15T11:04:08;6.80;1.00
10276;DHT22;5183;51.190;6.820;2023-02-15T11:06:40;6.80;1.00
10276;DHT22;5183;51.190;6.820;2023-02-15T11:09:10;6.90;1.00
10276;DHT22;5183;51.190;6.820;2023-02-15T11:11:40;6.90;1.00
10276;DHT22;5183;51.190;6.820;2023-02-15T11:14:14;7.00;1.00
10276;DHT22;5183;51.190;6.820;2023-02-15T11:16:45;7.20;1.00
10276;DHT22;5183;51.190;6.820;2023-02-15T11:19:19;7.30;1.00
10276;DHT22;5183;51.190;6.820;2023-02-15T11:21:49;7.30;1.00
10276;DHT22;5183;51.190;6.820;2023-02-15T11:24:19;7.50;1.00
10276;DHT22;5183;51.190;6.820;2023-02-15T11:26:49;7.70;1.00
10276;DHT22;5183;51.190;6.820;2023-02-15T11:29:23;7.70;1.00
10276;DHT22;5183;51.190;6.820;2023-02-15T11:31:55;7.90;1.00
10276;DHT22;5183;51.190;6.820;2023-02-15T11:34:27;8.10;1.00
10276;DHT22;5183;51.190;6.820;2023-02-15T11:36:58;8.20;1.00
10276;DHT22;5183;51.190;6.820;2023-02-15T11:39:26;8.30;99.90
10276;DHT22;5183;51.190;6.820;2023-02-15T11:42:00;8.40;99.90
10276;DHT22;5183;51.190;6.820;2023-02-15T11:44:32;8.50;99.90
10276;DHT22;5183;51.190;6.820;2023-02-15T11:47:03;8.50;99.90
10276;DHT22;5183;51.190;6.820;2023-02-15T11:49:31;8.60;99.90
10276;DHT22;5183;51.190;6.820;2023-02-15T11:52:00;8.70;99.90
10276;DHT22;5183;51.190;6.820;2023-02-15T11:54:30;8.80;99.90
10276;DHT22;5183;51.190;6.820;2023-02-15T11:57:03;9.00;99.90
10276;DHT22;5183;51.190;6.820;2023-02-15T11:59:34;9.20;1.00
10276;DHT22;5183;51.190;6.820;2023-02-15T12:02:16;9.30;99.90
10276;DHT22;5183;51.190;6.820;2023-02-15T12:04:47;9.40;99.90
10276;DHT22;5183;51.190;6.820;2023-02-15T12:07:19;9.40;1.00
10276;DHT22;5183;51.190;6.820;2023-02-15T12:09:52;9.50;1.00
10276;DHT22;5183;51.190;6.820;2023-02-15T12:12:24;9.70;1.00
10276;DHT22;5183;51.190;6.820;2023-02-15T12:14:52;9.90;1.00
10276;DHT22;5183;51.190;6.820;2023-02-15T12:17:24;10.00;99.90
10276;DHT22;5183;51.190;6.820;2023-02-15T12:19:53;10.20;1.00
10276;DHT22;5183;51.190;6.820;2023-02-15T12:22:24;10.30;1.00
10276;DHT22;5183;51.190;6.820;2023-02-15T12:24:54;10.40;99.90
10276;DHT22;5183;51.190;6.820;2023-02-15T12:27:24;10.50;1.00
10276;DHT22;5183;51.190;6.820;2023-02-15T12:29:55;10.70;99.90
10276;DHT22;5183;51.190;6.820;2023-02-15T12:32:25;10.80;99.90
10276;DHT22;5183;51.190;6.820;2023-02-15T12:34:56;10.90;1.00
10276;DHT22;5183;51.190;6.820;2023-02-15T12:37:28;11.00;1.00
10276;DHT22;5183;51.190;6.820;2023-02-15T12:39:58;11.10;1.00
10276;DHT22;5183;51.190;6.820;2023-02-15T12:42:27;11.20;1.00
10276;DHT22;5183;51.190;6.820;2023-02-15T12:45:00;11.30;63.40
10276;DHT22;5183;51.190;6.820;2023-02-15T12:47:29;11.40;1.00
10276;DHT22;5183;51.190;6.820;2023-02-15T12:50:12;11.40;1.00
10276;DHT22;5183;51.190;6.820;2023-02-15T12:52:44;11.50;1.00
10276;DHT22;5183;51.190;6.820;2023-02-15T12:55:21;11.50;88.50
10276;DHT22;5183;51.190;6.820;2023-02-15T12:57:48;11.70;1.00
10276;DHT22;5183;51.190;6.820;2023-02-15T13:00:27;11.80;1.00
10276;DHT22;5183;51.190;6.820;2023-02-15T13:02:59;11.90;99.90
10276;DHT22;5183;51.190;6.820;2023-02-15T13:05:32;12.20;40.90
10276;DHT22;5183;51.190;6.820;2023-02-15T13:08:02;12.20;1.00
10276;DHT22;5183;51.190;6.820;2023-02-15T13:10:33;12.30;55.30
10276;DHT22;5183;51.190;6.820;2023-02-15T13:13:01;12.40;1.00
10276;DHT22;5183;51.190;6.820;2023-02-15T13:15:37;12.50;1.00
10276;DHT22;5183;51.190;6.820;2023-02-15T13:18:12;12.70;1.00
10276;DHT22;5183;51.190;6.820;2023-02-15T13:20:41;12.80;99.90
10276;DHT22;5183;51.190;6.820;2023-02-15T13:23:23;12.90;99.90
10276;DHT22;5183;51.190;6.820;2023-02-15T13:25:54;12.90;99.90
10276;DHT22;5183;51.190;6.820;2023-02-15T13:28:24;13.10;1.00
10276;DHT22;5183;51.190;6.820;2023-02-15T13:30:52;13.10;1.00
10276;DHT22;5183;51.190;6.820;2023-02-15T13:33:25;13.20;1.00
10276;DHT22;5183;51.190;6.820;2023-02-15T13:36:00;13.30;1.00
10276;DHT22;5183;51.190;6.820;2023-02-15T13:38:44;13.40;1.00
10276;DHT22;5183;51.190;6.820;2023-02-15T13:41:14;13.40;1.00
10276;DHT22;5183;51.190;6.820;2023-02-15T13:43:50;13.50;1.00
10276;DHT22;5183;51.190;6.820;2023-02-15T13:46:30;13.70;1.00
10276;DHT22;5183;51.190;6.820;2023-02-15T13:49:13;13.80;1.00
10276;DHT22;5183;51.190;6.820;2023-02-15T13:51:50;13.90;1.00
10276;DHT22;5183;51.190;6.820;2023-02-15T13:57:35;14.20;99.90
10276;DHT22;5183;51.190;6.820;2023-02-15T14:00:15;14.20;99.90
10276;DHT22;5183;51.190;6.820;2023-02-15T14:03:05;14.30;1.00
10276;DHT22;5183;51.190;6.820;2023-02-15T14:05:48;14.30;99.90
10276;DHT22;5183;51.190;6.820;2023-02-15T14:08:24;14.40;1.00
10276;DHT22;5183;51.190;6.820;2023-02-15T14:10:57;14.40;1.00
10276;DHT22;5183;51.190;6.820;2023-02-15T14:16:30;14.60;1.00
10276;DHT22;5183;51.190;6.820;2023-02-15T14:19:04;14.60;1.00
10276;DHT22;5183;51.190;6.820;2023-02-15T14:21:36;14.70;1.00
10276;DHT22;5183;51.190;6.820;2023-02-15T14:24:17;14.70;1.00
10276;DHT22;5183;51.190;6.820;2023-02-15T14:26:53;14.70;1.00
10276;DHT22;5183;51.190;6.820;2023-02-15T14:29:41;14.50;1.00
10276;DHT22;5183;51.190;6.820;2023-02-15T14:32:14;14.50;1.00
10276;DHT22;5183;51.190;6.820;2023-02-15T14:34:46;14.50;1.00
10276;DHT22;5183;51.190;6.820;2023-02-15T14:37:24;14.40;1.00
10276;DHT22;5183;51.190;6.820;2023-02-15T14:39:57;14.40;1.00
10276;DHT22;5183;51.190;6.820;2023-02-15T14:42:50;14.50;1.00
10276;DHT22;5183;51.190;6.820;2023-02-15T14:45:21;14.50;1.00
10276;DHT22;5183;51.190;6.820;2023-02-15T14:47:55;14.30;1.00
10276;DHT22;5183;51.190;6.820;2023-02-15T14:50:44;14.20;1.00
10276;DHT22;5183;51.190;6.820;2023-02-15T14:53:34;14.20;1.00
10276;DHT22;5183;51.190;6.820;2023-02-15T14:56:25;14.10;1.00
10276;DHT22;5183;51.190;6.820;2023-02-15T15:01:38;14.20;1.00
10276;DHT22;5183;51.190;6.820;2023-02-15T15:04:07;14.10;1.00
10276;DHT22;5183;51.190;6.820;2023-02-15T15:06:37;14.00;1.00
10276;DHT22;5183;51.190;6.820;2023-02-15T15:09:13;14.00;1.00
10276;DHT22;5183;51.190;6.820;2023-02-15T15:11:43;14.00;1.00
10276;DHT22;5183;51.190;6.820;2023-02-15T15:16:53;13.80;1.00
10276;DHT22;5183;51.190;6.820;2023-02-15T15:22:30;13.80;1.00
10276;DHT22;5183;51.190;6.820;2023-02-15T15:24:59;13.70;99.90
10276;DHT22;5183;51.190;6.820;2023-02-15T15:27:49;13.50;99.90
10276;DHT22;5183;51.190;6.820;2023-02-15T15:30:49;13.30;99.90
10276;DHT22;5183;51.190;6.820;2023-02-15T15:36:49;13.20;99.90
10276;DHT22;5183;51.190;6.820;2023-02-15T15:42:31;13.10;99.90
10276;DHT22;5183;51.190;6.820;2023-02-15T15:45:14;12.80;1.00
10276;DHT22;5183;51.190;6.820;2023-02-15T15:48:00;12.80;99.90
10276;DHT22;5183;51.190;6.820;2023-02-15T15:50:31;12.80;1.00
10276;DHT22;5183;51.190;6.820;2023-02-15T15:52:59;12.80;1.00
10276;DHT22;5183;51.190;6.820;2023-02-15T15:55:29;12.70;52.50
10276;DHT22;5183;51.190;6.820;2023-02-15T15:58:00;12.50;1.00
10276;DHT22;5183;51.190;6.820;2023-02-15T16:00:37;12.40;1.00
10276;DHT22;5183;51.190;6.820;2023-02-15T16:03:14;12.30;1.00
10276;DHT22;5183;51.190;6.820;2023-02-15T16:05:41;12.20;1.00
10276;DHT22;5183;51.190;6.820;2023-02-15T16:08:08;12.10;1.00
10276;DHT22;5183;51.190;6.820;2023-02-15T16:10:35;11.90;1.00
10276;DHT22;5183;51.190;6.820;2023-02-15T16:13:05;11.80;1.00
10276;DHT22;5183;51.190;6.820;2023-02-15T16:15:35;11.70;1.00
10276;DHT22;5183;51.190;6.820;2023-02-15T16:18:03;11.60;1.00
10276;DHT22;5183;51.190;6.820;2023-02-15T16:20:32;11.50;1.00
10276;DHT22;5183;51.190;6.820;2023-02-15T16:23:12;11.50;1.00
10276;DHT22;5183;51.190;6.820;2023-02-15T16:25:48;11.40;1.00
10276;DHT22;5183;51.190;6.820;2023-02-15T16:28:20;11.30;1.00
10276;DHT22;5183;51.190;6.820;2023-02-15T16:30:55;11.10;1.00
10276;DHT22;5183;51.190;6.820;2023-02-15T16:33:35;11.10;1.00
10276;DHT22;5183;51.190;6.820;2023-02-15T16:36:03;10.90;1.00
10276;DHT22;5183;51.190;6.820;2023-02-15T16:41:31;10.70;1.00
10276;DHT22;5183;51.190;6.820;2023-02-15T16:44:04;10.60;1.00
10276;DHT22;5183;51.190;6.820;2023-02-15T16:46:35;10.50;1.00
10276;DHT22;5183;51.190;6.820;2023-02-15T16:49:05;10.40;1.00
10276;DHT22;5183;51.190;6.820;2023-02-15T16:51:36;10.30;1.00
10276;DHT22;5183;51.190;6.820;2023-02-15T16:54:06;10.30;1.00
10276;DHT22;5183;51.190;6.820;2023-02-15T16:56:34;10.10;1.00
10276;DHT22;5183;51.190;6.820;2023-02-15T16:59:03;10.00;1.00
10276;DHT22;5183;51.190;6.820;2023-02-15T17:01:32;9.90;1.00
10276;DHT22;5183;51.190;6.820;2023-02-15T17:04:16;9.90;13.00
10276;DHT22;5183;51.190;6.820;2023-02-15T17:06:58;9.90;19.80
10276;DHT22;5183;51.190;6.820;2023-02-15T17:09:25;9.90;23.80
10276;DHT22;5183;51.190;6.820;2023-02-15T17:11:52;9.90;19.70
10276;DHT22;5183;51.190;6.820;2023-02-15T17:14:27;9.80;34.70